Time;durP1;ratioP1;P1;durP2;ratioP2;P2;SDS_P1;SDS_P2;PMS_P1;PMS_P2;Temp;Humidity;BMP_temperature;BMP_pressure;BME280_temperature;BME280_humidity;BME280_pressure;Samples;Min_cycle;Max_cycle;Signal;HPM_P1;HPM_P2
2023/03/26 00:02:03;;;;;;;26.93;11.33;;;7.80;99.90;;;;;;6307845;22;20054;-90
2023/03/26 00:04:35;;;;;;;42.07;19.97;;;6.60;99.90;;;;;;6309141;22;20017;-90
2023/03/26 00:07:31;;;;;;;41.13;22.13;;;8.60;99.90;;;;;;6307902;22;20447;-90
2023/03/26 00:10:18;;;;;;;32.50;16.60;;;7.20;99.90;;;;;;6308200;22;20078;-90
2023/03/26 00:12:44;;;;;;;20.70;7.77;;;7.10;99.90;;;;;;6308872;22;20016;-90
2023/03/26 00:15:28;;;;;;;24.80;12.70;;;8.20;99.90;;;;;;6336261;22;20023;-90
2023/03/26 00:17:55;;;;;;;37.67;19.48;;;7.00;99.90;;;;;;6334986;22;20081;-90
2023/03/26 00:20:40;;;;;;;32.83;17.33;;;7.00;99.90;;;;;;6333248;22;20015;-90
2023/03/26 00:23:07;;;;;;;12.90;3.03;;;7.10;99.90;;;;;;6306499;22;20073;-90
2023/03/26 00:25:49;;;;;;;20.40;7.63;;;7.80;99.90;;;;;;6306751;22;20015;-91
2023/03/26 00:28:16;;;;;;;17.07;6.33;;;8.40;99.90;;;;;;6306719;22;20046;-90
2023/03/26 00:30:42;;;;;;;18.10;6.87;;;7.60;99.90;;;;;;6306712;22;20015;-89
2023/03/26 00:33:28;;;;;;;18.03;6.43;;;7.10;99.90;;;;;;6280332;22;20047;-89
2023/03/26 00:35:57;;;;;;;14.53;5.23;;;7.10;99.90;;;;;;6306516;22;20073;-90
2023/03/26 00:38:38;;;;;;;13.67;5.03;;;7.90;99.90;;;;;;6306223;22;20101;-89
2023/03/26 00:41:05;;;;;;;13.93;3.33;;;6.60;99.90;;;;;;6306585;22;20019;-90
2023/03/26 00:43:45;;;;;;;17.67;7.20;;;7.10;99.90;;;;;;6306545;22;20303;-90
2023/03/26 00:46:11;;;;;;;15.73;6.97;;;7.50;99.90;;;;;;6307748;22;20022;-92
2023/03/26 00:48:46;;;;;;;14.40;3.73;;;7.80;99.90;;;;;;6295132;22;20018;-90
2023/03/26 00:51:32;;;;;;;11.50;3.40;;;7.00;99.90;;;;;;6306040;22;20011;-90
2023/03/26 00:54:36;;;;;;;14.43;6.23;;;8.30;99.90;;;;;;6306210;22;20015;-92
2023/03/26 00:57:05;;;;;;;16.25;5.38;;;8.50;99.90;;;;;;6188103;23;20028;-90
2023/03/26 00:59:49;;;;;;;15.00;6.20;;;8.00;99.90;;;;;;6211624;23;20453;-90
2023/03/26 01:02:22;;;;;;;14.73;4.93;;;7.10;99.90;;;;;;6257016;22;20125;-91
2023/03/26 01:05:10;;;;;;;20.27;4.70;;;8.10;99.90;;;;;;6305011;22;20011;-90
2023/03/26 01:07:36;;;;;;;18.10;7.50;;;6.90;99.90;;;;;;6304042;22;20051;-90
2023/03/26 01:12:40;;;;;;;17.07;5.40;;;6.90;99.90;;;;;;6327898;22;20057;-89
2023/03/26 01:15:07;;;;;;;13.73;3.77;;;6.80;99.90;;;;;;6310526;22;20011;-90
2023/03/26 01:17:56;;;;;;;37.90;16.67;;;6.70;99.90;;;;;;6306009;22;20094;-90
2023/03/26 01:20:45;;;;;;;15.73;3.23;;;6.70;99.90;;;;;;6308491;22;20015;-90
2023/03/26 01:23:14;;;;;;;25.90;11.57;;;8.10;99.90;;;;;;6309261;22;20022;-90
2023/03/26 01:26:00;;;;;;;14.43;4.23;;;7.70;99.90;;;;;;6307528;22;20043;-90
2023/03/26 01:28:45;;;;;;;21.13;7.17;;;6.80;99.90;;;;;;6306054;22;20019;-91
2023/03/26 01:31:43;;;;;;;18.77;5.40;;;6.30;99.90;;;;;;6305334;22;20022;-90
2023/03/26 01:34:59;;;;;;;13.93;3.13;;;6.50;99.90;;;;;;6304912;22;20046;-90
2023/03/26 01:38:09;;;;;;;19.07;7.97;;;6.40;99.90;;;;;;6308011;22;20019;-90
2023/03/26 01:41:08;;;;;;;18.27;6.87;;;6.40;99.90;;;;;;6264277;22;20493;-90
2023/03/26 01:43:58;;;;;;;13.33;3.00;;;6.30;99.90;;;;;;6307627;22;20474;-91
2023/03/26 01:46:25;;;;;;;21.23;7.67;;;6.20;99.90;;;;;;6307432;22;20015;-89
2023/03/26 01:48:51;;;;;;;11.50;4.30;;;6.10;99.90;;;;;;6306967;22;20021;-90
2023/03/26 01:51:33;;;;;;;15.97;3.33;;;6.10;99.90;;;;;;6306293;22;20050;-90
2023/03/26 01:54:03;;;;;;;12.07;2.70;;;6.00;99.90;;;;;;6306148;22;20387;-89
2023/03/26 01:56:40;;;;;;;14.50;4.20;;;6.00;99.90;;;;;;6308055;22;20019;-90
2023/03/26 01:59:19;;;;;;;13.13;2.77;;;5.90;99.90;;;;;;6305568;22;20038;-89
2023/03/26 02:01:59;;;;;;;14.67;3.80;;;5.80;99.90;;;;;;6306448;22;20015;-90
2023/03/26 02:04:32;;;;;;;13.80;2.93;;;6.50;99.90;;;;;;6307236;22;20022;-89
2023/03/26 02:07:42;;;;;;;12.47;2.80;;;5.80;99.90;;;;;;6305194;22;20019;-90
2023/03/26 02:10:18;;;;;;;9.77;2.70;;;5.80;99.90;;;;;;6186582;23;20028;-90
2023/03/26 02:12:44;;;;;;;11.57;2.73;;;5.90;99.90;;;;;;6187827;23;20036;-90
2023/03/26 02:15:11;;;;;;;10.80;2.97;;;5.90;99.90;;;;;;6254573;22;20015;-90
2023/03/26 02:17:39;;;;;;;12.33;2.77;;;6.30;99.90;;;;;;6320426;22;20033;-90
2023/03/26 02:20:10;;;;;;;12.33;2.53;;;6.80;99.90;;;;;;6334329;22;20029;-90
2023/03/26 02:22:39;;;;;;;10.07;2.50;;;6.00;99.90;;;;;;6334729;22;20006;-90
2023/03/26 02:25:08;;;;;;;9.40;2.30;;;6.10;99.90;;;;;;6323092;22;20019;-89
2023/03/26 02:27:35;;;;;;;9.77;2.73;;;6.10;99.90;;;;;;6306323;22;20090;-90
2023/03/26 02:30:01;;;;;;;10.17;2.33;;;6.20;99.90;;;;;;6305507;22;20012;-90
2023/03/26 02:32:27;;;;;;;12.13;2.77;;;6.80;99.90;;;;;;6307735;22;20016;-90
2023/03/26 02:34:55;;;;;;;9.63;2.70;;;7.00;99.90;;;;;;6305264;22;20011;-90
2023/03/26 02:37:29;;;;;;;10.53;2.90;;;6.20;99.90;;;;;;6301334;22;20019;-90
2023/03/26 02:40:12;;;;;;;10.73;2.80;;;6.30;99.90;;;;;;6305803;22;20023;-90
2023/03/26 02:42:38;;;;;;;9.93;2.53;;;6.30;99.90;;;;;;6304686;22;20026;-90
2023/03/26 02:45:19;;;;;;;13.97;2.93;;;6.80;99.90;;;;;;6325165;22;20063;-90
2023/03/26 02:48:04;;;;;;;10.67;2.60;;;5.90;99.90;;;;;;6318861;22;20090;-90
2023/03/26 02:50:45;;;;;;;10.77;2.70;;;6.20;99.90;;;;;;6310137;22;20019;-90
2023/03/26 02:53:12;;;;;;;9.70;2.80;;;5.90;99.90;;;;;;6309558;22;20046;-90
2023/03/26 02:55:53;;;;;;;12.83;2.93;;;7.50;99.90;;;;;;6308121;22;20007;-90
2023/03/26 02:58:19;;;;;;;11.90;2.87;;;6.30;99.90;;;;;;6304328;22;20026;-90
2023/03/26 03:00:45;;;;;;;11.73;3.50;;;6.50;99.90;;;;;;6306729;22;20011;-90
2023/03/26 03:03:30;;;;;;;13.77;3.00;;;6.20;99.90;;;;;;6306575;22;20443;-89
2023/03/26 03:05:58;;;;;;;15.27;3.07;;;7.30;99.90;;;;;;6306231;22;20511;-90
2023/03/26 03:08:26;;;;;;;12.53;3.00;;;6.00;99.90;;;;;;6305848;22;20043;-90
2023/03/26 03:11:16;;;;;;;9.40;2.83;;;7.50;99.90;;;;;;6304237;22;20015;-90
2023/03/26 03:13:55;;;;;;;12.23;3.47;;;6.20;99.90;;;;;;6304902;22;20019;-90
2023/03/26 03:17:01;;;;;;;12.83;3.33;;;6.20;99.90;;;;;;6304521;22;20011;-90
2023/03/26 03:19:26;;;;;;;11.93;3.23;;;6.50;99.90;;;;;;6306203;22;20015;-90
2023/03/26 03:22:07;;;;;;;9.37;2.90;;;7.60;99.90;;;;;;6307134;22;20055;-91
2023/03/26 03:24:33;;;;;;;16.00;3.00;;;5.90;99.90;;;;;;6307247;22;20467;-90
2023/03/26 03:26:58;;;;;;;13.93;2.80;;;6.80;99.90;;;;;;6306136;22;20027;-90
2023/03/26 03:29:42;;;;;;;10.37;3.00;;;6.30;99.90;;;;;;6307566;22;20436;-91
2023/03/26 03:32:08;;;;;;;15.18;3.10;;;6.10;99.90;;;;;;6307540;22;20486;-89
2023/03/26 03:34:49;;;;;;;14.43;3.47;;;5.80;99.90;;;;;;6306415;22;20015;-90
2023/03/26 03:37:17;;;;;;;13.07;3.20;;;6.20;99.90;;;;;;6308766;22;20148;-89
2023/03/26 03:39:58;;;;;;;14.57;4.03;;;5.90;99.90;;;;;;6308364;22;20015;-89
2023/03/26 03:42:24;;;;;;;15.53;3.70;;;6.90;99.90;;;;;;6309140;22;20015;-89
2023/03/26 03:44:49;;;;;;;11.43;3.00;;;6.30;99.90;;;;;;6312888;22;20019;-89
2023/03/26 03:47:30;;;;;;;14.67;3.60;;;6.50;99.90;;;;;;6305687;22;20082;-90
2023/03/26 03:49:58;;;;;;;14.10;3.80;;;5.70;99.90;;;;;;6309032;22;20017;-89
2023/03/26 03:52:43;;;;;;;10.20;3.33;;;5.60;99.90;;;;;;6309072;22;20015;-89
2023/03/26 03:55:09;;;;;;;;;;;6.00;99.90;;;;;;6305351;22;20016;-89
2023/03/26 03:57:35;;;;;;;10.83;3.27;;;5.20;99.90;;;;;;6309170;22;19915;-90
2023/03/26 04:00:21;;;;;;;12.73;3.30;;;5.00;99.90;;;;;;6306558;22;20022;-90
2023/03/26 04:02:46;;;;;;;10.87;3.00;;;4.90;99.90;;;;;;6307544;22;20064;-90
2023/03/26 04:05:12;;;;;;;11.73;2.97;;;6.00;99.90;;;;;;6306825;22;20086;-89
2023/03/26 04:07:56;;;;;;;13.70;3.07;;;4.70;99.90;;;;;;6305956;22;20100;-89
2023/03/26 04:10:22;;;;;;;13.73;3.47;;;4.50;99.90;;;;;;6306344;22;20756;-89
2023/03/26 04:12:48;;;;;;;12.70;3.00;;;4.40;99.90;;;;;;6306657;22;20043;-89
2023/03/26 04:15:30;;;;;;;13.13;2.93;;;4.20;99.90;;;;;;6312513;22;20011;-89
2023/03/26 04:17:55;;;;;;;12.20;2.90;;;4.70;99.90;;;;;;6311154;22;20075;-90
2023/03/26 04:20:22;;;;;;;12.47;2.90;;;4.90;99.90;;;;;;6315059;22;20035;-90
2023/03/26 04:22:47;;;;;;;13.17;2.90;;;4.30;99.90;;;;;;6313453;22;20046;-89
2023/03/26 04:25:32;;;;;;;13.60;3.37;;;3.80;99.90;;;;;;6307282;22;20317;-89
2023/03/26 04:28:05;;;;;;;14.80;2.87;;;4.60;99.90;;;;;;6306640;22;20011;-90
2023/03/26 04:30:47;;;;;;;12.27;3.33;;;4.40;99.90;;;;;;6307398;22;20098;-89
2023/03/26 04:33:14;;;;;;;11.37;3.50;;;4.80;99.90;;;;;;6305986;22;20019;-90
2023/03/26 04:35:40;;;;;;;11.63;3.77;;;6.10;99.90;;;;;;6306334;22;20010;-89
2023/03/26 04:38:18;;;;;;;13.20;3.67;;;4.50;99.90;;;;;;6305224;22;20026;-90
2023/03/26 04:40:46;;;;;;;13.90;3.37;;;4.50;99.90;;;;;;6304296;22;20015;-89
2023/03/26 04:43:25;;;;;;;12.80;3.13;;;4.60;99.90;;;;;;6306596;22;20319;-90
2023/03/26 04:45:51;;;;;;;16.40;3.80;;;6.20;99.90;;;;;;6307891;22;20350;-90
2023/03/26 04:48:19;;;;;;;14.50;3.60;;;4.80;99.90;;;;;;6305801;22;20068;-90
2023/03/26 04:50:45;;;;;;;13.73;3.93;;;4.80;99.90;;;;;;6305216;22;20022;-89
2023/03/26 04:53:14;;;;;;;12.97;3.87;;;5.20;99.90;;;;;;6305935;22;20012;-90
2023/03/26 04:55:50;;;;;;;14.83;4.50;;;5.00;99.90;;;;;;6308060;22;20020;-90
2023/03/26 04:58:16;;;;;;;17.67;5.00;;;5.00;99.90;;;;;;6305032;22;20031;-90
2023/03/26 05:00:42;;;;;;;22.03;5.67;;;5.10;99.90;;;;;;6306390;22;20447;-90
2023/03/26 05:03:11;;;;;;;17.07;5.80;;;5.30;99.90;;;;;;6307535;22;20026;-91
2023/03/26 05:05:37;;;;;;;19.10;5.50;;;5.20;99.90;;;;;;6305608;22;20017;-90
2023/03/26 05:08:03;;;;;;;21.63;7.07;;;5.20;99.90;;;;;;6307928;22;20034;-90
2023/03/26 05:10:29;;;;;;;20.57;6.43;;;5.30;99.90;;;;;;6306232;22;20544;-90
2023/03/26 05:12:55;;;;;;;18.07;6.57;;;6.60;99.90;;;;;;6307174;22;20016;-89
2023/03/26 05:15:20;;;;;;;19.77;7.23;;;6.60;99.90;;;;;;6305654;22;20016;-88
2023/03/26 05:17:47;;;;;;;20.53;6.87;;;5.30;99.90;;;;;;6305331;22;20023;-89
2023/03/26 05:20:21;;;;;;;22.13;7.17;;;5.40;99.90;;;;;;6304907;22;20376;-90
2023/03/26 05:22:49;;;;;;;20.73;7.30;;;5.90;99.90;;;;;;6308941;22;20012;-89
2023/03/26 05:25:37;;;;;;;19.80;7.50;;;5.20;99.90;;;;;;6322888;22;20041;-90
2023/03/26 05:28:03;;;;;;;19.33;7.23;;;5.50;99.90;;;;;;6334649;22;20050;-90
2023/03/26 05:30:38;;;;;;;18.57;7.67;;;5.50;99.90;;;;;;6334664;22;20015;-89
2023/03/26 05:36:41;;;;;;;18.50;7.10;;;5.80;99.90;;;;;;6306362;22;20015;-90
2023/03/26 05:39:28;;;;;;;16.20;6.57;;;5.20;99.90;;;;;;6304992;22;20351;-90
2023/03/26 05:41:54;;;;;;;16.67;6.07;;;5.40;99.90;;;;;;6306048;22;20022;-90
2023/03/26 05:44:20;;;;;;;17.57;5.70;;;5.60;99.90;;;;;;6303863;22;20030;-90
2023/03/26 05:47:12;;;;;;;22.00;6.03;;;5.10;99.90;;;;;;6308939;22;20003;-90
2023/03/26 05:49:50;;;;;;;17.60;6.10;;;5.70;99.90;;;;;;6309443;22;20011;-89
2023/03/26 05:52:17;;;;;;;17.97;6.47;;;6.80;99.90;;;;;;6314262;22;20070;-88
2023/03/26 05:55:14;;;;;;;19.93;6.63;;;6.60;99.90;;;;;;6331314;22;20018;-89
2023/03/26 05:57:58;;;;;;;17.00;6.77;;;5.70;99.90;;;;;;6255820;22;20519;-89
2023/03/26 06:00:24;;;;;;;16.80;6.43;;;5.80;99.90;;;;;;6307096;22;20465;-90
2023/03/26 06:03:02;;;;;;;15.23;6.10;;;5.80;99.90;;;;;;6307466;22;20234;-90
2023/03/26 06:05:31;;;;;;;18.43;6.43;;;5.60;99.90;;;;;;6307716;22;20019;-90
2023/03/26 06:08:12;;;;;;;16.23;5.97;;;5.60;99.90;;;;;;6307645;22;20045;-89
2023/03/26 06:10:38;;;;;;;13.17;5.50;;;7.20;99.90;;;;;;6305856;22;20053;-90
2023/03/26 06:13:04;;;;;;;14.93;5.27;;;5.70;99.90;;;;;;6307172;22;20015;-90
2023/03/26 06:15:29;;;;;;;14.77;4.40;;;5.80;99.90;;;;;;6306633;22;20019;-90
2023/03/26 06:18:02;;;;;;;14.87;4.70;;;6.80;99.90;;;;;;6306366;22;20015;-90
2023/03/26 06:20:28;;;;;;;15.73;4.75;;;6.30;99.90;;;;;;6306546;22;20081;-90
2023/03/26 06:22:54;;;;;;;16.33;4.63;;;6.00;99.90;;;;;;6306515;22;20015;-90
2023/03/26 06:25:32;;;;;;;14.27;3.97;;;7.10;99.90;;;;;;6305612;22;20019;-83
2023/03/26 06:27:58;;;;;;;15.87;3.87;;;7.50;99.90;;;;;;6303476;22;20317;-83
2023/03/26 06:30:24;;;;;;;15.80;4.43;;;7.00;99.90;;;;;;6304543;22;20058;-82
2023/03/26 06:32:49;;;;;;;12.07;3.87;;;6.10;99.90;;;;;;6306919;22;20015;-82
2023/03/26 06:35:15;;;;;;;14.63;4.10;;;6.10;99.90;;;;;;6304994;22;20016;-85
2023/03/26 06:37:41;;;;;;;14.10;4.57;;;6.10;99.90;;;;;;6304909;22;20015;-84
2023/03/26 06:40:07;;;;;;;17.33;6.50;;;6.40;99.90;;;;;;6305576;22;20331;-85
2023/03/26 06:42:33;;;;;;;13.73;4.57;;;6.20;99.90;;;;;;6305007;22;20318;-85
2023/03/26 06:44:59;;;;;;;17.90;4.30;;;6.20;99.90;;;;;;6306878;22;20051;-85
2023/03/26 06:47:25;;;;;;;13.63;4.20;;;6.20;99.90;;;;;;6305329;22;20019;-85
2023/03/26 06:49:50;;;;;;;10.53;3.47;;;6.20;99.90;;;;;;6306314;22;20015;-84
2023/03/26 06:52:16;;;;;;;16.90;4.33;;;6.30;99.90;;;;;;6305442;22;20023;-84
2023/03/26 06:54:42;;;;;;;14.63;4.07;;;6.90;99.90;;;;;;6307651;22;20094;-84
2023/03/26 06:57:07;;;;;;;14.40;4.07;;;7.40;99.90;;;;;;6307978;22;20435;-87
2023/03/26 06:59:33;;;;;;;20.77;4.10;;;6.90;99.90;;;;;;6309742;22;20015;-84
2023/03/26 07:01:59;;;;;;;21.17;4.13;;;6.40;99.90;;;;;;6308537;22;20106;-88
2023/03/26 07:04:24;;;;;;;19.00;4.53;;;6.40;99.90;;;;;;6305828;22;20015;-84
2023/03/26 07:06:50;;;;;;;16.93;3.90;;;6.50;99.90;;;;;;6308630;22;20082;-84
2023/03/26 07:09:16;;;;;;;20.07;4.20;;;6.50;99.90;;;;;;6308204;22;20023;-85
2023/03/26 07:11:41;;;;;;;19.20;4.67;;;6.50;99.90;;;;;;6305929;22;20470;-84
2023/03/26 07:14:07;;;;;;;14.37;3.93;;;6.60;99.90;;;;;;6306735;22;20015;-84
2023/03/26 07:16:32;;;;;;;16.47;4.13;;;6.60;99.90;;;;;;6308869;22;20328;-85
2023/03/26 07:18:58;;;;;;;12.60;3.67;;;6.70;99.90;;;;;;6306329;22;20011;-85
2023/03/26 07:21:24;;;;;;;17.27;4.80;;;7.70;99.90;;;;;;6315698;22;20019;-84
2023/03/26 07:23:50;;;;;;;19.13;4.53;;;6.80;99.90;;;;;;6308624;22;20023;-85
2023/03/26 07:26:33;;;;;;;15.10;3.60;;;6.80;99.90;;;;;;6310900;22;20091;-84
2023/03/26 07:29:06;;;;;;;12.00;4.07;;;6.80;99.90;;;;;;6325283;22;20090;-85
2023/03/26 07:31:47;;;;;;;20.85;3.88;;;6.90;99.90;;;;;;6306777;22;20342;-85
2023/03/26 07:34:33;;;;;;;20.07;4.10;;;6.90;99.90;;;;;;6306492;22;20019;-85
2023/03/26 07:37:49;;;;;;;20.73;3.60;;;7.00;99.90;;;;;;6308195;22;20015;-85
2023/03/26 07:40:47;;;;;;;20.93;4.03;;;7.00;99.90;;;;;;6279853;22;20098;-85
2023/03/26 07:43:52;;;;;;;13.87;3.60;;;7.10;99.90;;;;;;6279543;22;20494;-85
2023/03/26 07:46:22;;;;;;;;;;;7.10;99.90;;;;;;6307546;22;20073;-85
2023/03/26 07:48:50;;;;;;;17.63;3.47;;;6.80;99.90;;;;;;6307149;22;19934;-85
2023/03/26 07:51:31;;;;;;;16.03;3.10;;;7.50;99.90;;;;;;6312120;22;20098;-85
2023/03/26 07:53:59;;;;;;;18.83;3.30;;;7.10;99.90;;;;;;6283614;22;20014;-85
2023/03/26 07:56:59;;;;;;;17.40;3.17;;;7.10;99.90;;;;;;6338157;22;20026;-85
2023/03/26 07:59:49;;;;;;;17.33;3.33;;;7.10;99.90;;;;;;6337290;22;20019;-84
2023/03/26 08:02:42;;;;;;;13.83;3.33;;;7.10;99.90;;;;;;6311486;22;20503;-85
2023/03/26 08:05:25;;;;;;;17.77;4.10;;;7.20;99.90;;;;;;6340129;22;20068;-85
2023/03/26 08:08:12;;;;;;;15.63;3.50;;;7.20;99.90;;;;;;6339079;22;20018;-84
2023/03/26 08:11:15;;;;;;;19.13;3.70;;;7.30;99.90;;;;;;6247910;22;20038;-90
2023/03/26 08:13:55;;;;;;;21.60;3.60;;;7.20;99.90;;;;;;6339585;22;20023;-85
2023/03/26 08:16:38;;;;;;;15.97;3.50;;;7.20;99.90;;;;;;6339406;22;20025;-85
2023/03/26 08:19:39;;;;;;;15.87;3.37;;;7.20;99.90;;;;;;6311113;22;20347;-85
2023/03/26 08:22:15;;;;;;;18.43;3.60;;;7.20;99.90;;;;;;6337409;22;20038;-84
2023/03/26 08:25:00;;;;;;;18.37;3.77;;;7.10;99.90;;;;;;6339691;22;20029;-85
2023/03/26 08:27:36;;;;;;;13.83;2.97;;;7.10;99.90;;;;;;6311430;22;20471;-84
2023/03/26 08:30:13;;;;;;;19.03;4.33;;;7.00;99.90;;;;;;6310614;22;20442;-85
2023/03/26 08:32:39;;;;;;;18.53;3.50;;;7.00;99.90;;;;;;6312155;22;20342;-85
2023/03/26 08:35:06;;;;;;;16.70;3.13;;;7.10;99.90;;;;;;6331665;22;20033;-86
2023/03/26 08:37:40;;;;;;;14.03;2.63;;;7.10;99.90;;;;;;6337244;22;20015;-84
2023/03/26 08:40:06;;;;;;;15.03;2.50;;;7.10;99.90;;;;;;6342579;22;20500;-84
2023/03/26 08:43:09;;;;;;;15.17;3.13;;;7.10;99.90;;;;;;6340642;22;20015;-84
2023/03/26 08:46:07;;;;;;;16.30;2.60;;;7.10;99.90;;;;;;6339591;22;20017;-85
2023/03/26 08:48:52;;;;;;;17.00;3.40;;;7.30;99.90;;;;;;6339236;22;20015;-85
2023/03/26 08:51:29;;;;;;;15.77;3.20;;;7.30;99.90;;;;;;6341071;22;20022;-86
2023/03/26 08:54:16;;;;;;;23.00;3.57;;;7.40;99.90;;;;;;6345613;22;20014;-86
2023/03/26 08:56:51;;;;;;;14.23;3.27;;;7.50;99.90;;;;;;6339853;22;20342;-86
2023/03/26 08:59:53;;;;;;;15.33;3.33;;;7.60;99.90;;;;;;6341085;22;20018;-85
2023/03/26 09:02:54;;;;;;;17.60;3.33;;;7.70;99.90;;;;;;6363066;22;20022;-86
2023/03/26 09:05:35;;;;;;;15.87;2.93;;;7.70;99.90;;;;;;6312157;22;20015;-86
2023/03/26 09:08:39;;;;;;;15.27;2.97;;;8.40;99.90;;;;;;6340223;22;20023;-86
2023/03/26 09:11:44;;;;;;;16.10;2.95;;;7.70;99.90;;;;;;6338026;22;20097;-85
2023/03/26 09:14:35;;;;;;;12.77;3.23;;;7.80;99.90;;;;;;6310718;22;20026;-86
2023/03/26 09:17:23;;;;;;;14.30;2.87;;;7.90;99.90;;;;;;6311059;22;20022;-86
2023/03/26 09:20:26;;;;;;;16.23;3.20;;;7.90;99.90;;;;;;6338035;22;20053;-86
2023/03/26 09:23:18;;;;;;;13.97;2.97;;;8.00;99.90;;;;;;6310550;22;20450;-85
2023/03/26 09:26:01;;;;;;;17.30;2.70;;;8.10;99.90;;;;;;6263400;22;20015;-86
2023/03/26 09:29:01;;;;;;;17.48;3.15;;;8.20;99.90;;;;;;6339019;22;20015;-85
2023/03/26 09:31:59;;;;;;;15.63;3.00;;;8.10;99.90;;;;;;6245300;22;20019;-85
2023/03/26 09:35:10;;;;;;;15.53;3.27;;;8.30;99.90;;;;;;6339483;22;20343;-86
2023/03/26 09:37:57;;;;;;;15.07;2.80;;;8.30;99.90;;;;;;6339247;22;20018;-86
2023/03/26 09:41:01;;;;;;;15.40;3.00;;;8.30;99.90;;;;;;6311311;22;20401;-87
2023/03/26 09:43:48;;;;;;;21.27;2.92;;;8.10;99.90;;;;;;6188258;23;20023;-87
2023/03/26 09:46:16;;;;;;;15.37;3.00;;;8.10;99.90;;;;;;6305304;22;20026;-88
2023/03/26 09:49:22;;;;;;;21.40;3.40;;;8.10;99.90;;;;;;6339785;22;20014;-87
2023/03/26 09:51:57;;;;;;;15.67;2.77;;;8.00;99.90;;;;;;6338833;22;20418;-87
2023/03/26 09:54:43;;;;;;;14.20;2.93;;;7.70;99.90;;;;;;6336203;22;20022;-86
2023/03/26 09:57:24;;;;;;;17.20;2.97;;;8.20;99.90;;;;;;6339375;22;20015;-85
2023/03/26 10:00:18;;;;;;;16.73;2.97;;;9.20;99.90;;;;;;6309811;22;20011;-85
2023/03/26 10:03:00;;;;;;;17.67;3.17;;;8.20;99.90;;;;;;6310165;22;20026;-85
2023/03/26 10:05:55;;;;;;;14.23;2.97;;;8.30;99.90;;;;;;6309034;22;20022;-85
2023/03/26 10:08:23;;;;;;;14.67;3.43;;;8.20;99.90;;;;;;6337109;22;20080;-85
2023/03/26 10:11:06;;;;;;;17.13;3.10;;;8.10;99.90;;;;;;6337971;22;20026;-85
2023/03/26 10:13:46;;;;;;;15.47;3.60;;;8.30;99.90;;;;;;6309110;22;20027;-85
2023/03/26 10:16:27;;;;;;;12.60;2.63;;;8.30;99.90;;;;;;6310042;22;20010;-85
2023/03/26 10:19:27;;;;;;;17.17;3.03;;;8.20;99.90;;;;;;6311011;22;20026;-85
2023/03/26 10:22:28;;;;;;;12.63;3.38;;;8.30;99.90;;;;;;6267385;22;20028;-85
2023/03/26 10:25:16;;;;;;;13.35;3.22;;;8.30;99.90;;;;;;6286516;22;20084;-85
2023/03/26 10:27:56;;;;;;;18.50;3.00;;;8.30;99.90;;;;;;6310198;22;20019;-85
2023/03/26 10:30:40;;;;;;;13.20;2.90;;;8.30;99.90;;;;;;6343373;22;20085;-85
2023/03/26 10:33:48;;;;;;;13.68;2.88;;;8.40;99.90;;;;;;6351639;22;19999;-85
2023/03/26 10:36:28;;;;;;;14.98;2.97;;;8.40;99.90;;;;;;6338916;22;20015;-85
2023/03/26 10:39:01;;;;;;;11.43;2.97;;;8.50;99.90;;;;;;6337934;22;20582;-85
2023/03/26 10:41:52;;;;;;;12.10;3.03;;;8.90;99.90;;;;;;6309732;22;20346;-85
2023/03/26 10:44:43;;;;;;;18.75;3.38;;;8.60;99.90;;;;;;6338026;22;20021;-85
2023/03/26 10:48:03;;;;;;;11.87;2.83;;;8.60;99.90;;;;;;6309478;22;20015;-85
2023/03/26 10:50:50;;;;;;;16.60;3.30;;;8.60;99.90;;;;;;6210628;23;20021;-84
2023/03/26 10:53:19;;;;;;;13.83;2.60;;;8.60;99.90;;;;;;6337914;22;20011;-85
2023/03/26 10:55:52;;;;;;;12.47;2.70;;;9.60;99.90;;;;;;6308419;22;20011;-85
2023/03/26 10:58:24;;;;;;;11.93;2.40;;;9.80;99.90;;;;;;6338056;22;20404;-86
2023/03/26 11:01:09;;;;;;;16.50;2.50;;;8.60;99.90;;;;;;6308039;22;20113;-86
2023/03/26 11:03:55;;;;;;;14.60;2.85;;;8.50;99.90;;;;;;6309031;22;20046;-85
2023/03/26 11:06:26;;;;;;;17.27;2.60;;;8.60;99.90;;;;;;6338126;22;20011;-87
2023/03/26 11:09:33;;;;;;;12.73;2.63;;;8.70;99.90;;;;;;6310600;22;20385;-86
2023/03/26 11:12:07;;;;;;;11.88;2.40;;;8.60;99.90;;;;;;6240991;22;20015;-87
2023/03/26 11:14:58;;;;;;;15.27;2.72;;;8.70;99.90;;;;;;6310169;22;20070;-87
2023/03/26 11:17:56;;;;;;;10.50;2.45;;;8.80;99.90;;;;;;6310883;22;20018;-87
2023/03/26 11:23:59;;;;;;;14.30;2.40;;;8.80;99.90;;;;;;6310375;22;20019;-86
2023/03/26 11:29:39;;;;;;;14.52;2.80;;;8.80;99.90;;;;;;6306493;22;20019;-84
2023/03/26 11:32:31;;;;;;;10.60;2.50;;;8.60;99.90;;;;;;6307177;22;20023;-84
2023/03/26 11:35:31;;;;;;;10.90;2.80;;;8.90;99.90;;;;;;6332106;22;20019;-85
2023/03/26 11:38:19;;;;;;;11.35;2.58;;;8.90;99.90;;;;;;6311201;22;20012;-86
2023/03/26 11:41:13;;;;;;;13.25;2.70;;;9.70;99.90;;;;;;6309613;22;20019;-85
2023/03/26 11:43:39;;;;;;;14.50;2.75;;;8.50;99.90;;;;;;6308698;22;20442;-84
2023/03/26 11:46:27;;;;;;;15.48;2.90;;;9.50;99.90;;;;;;6305873;22;20037;-86
2023/03/26 11:49:10;;;;;;;15.02;3.03;;;8.80;99.90;;;;;;6306950;22;20019;-85
2023/03/26 11:51:47;;;;;;;15.30;2.72;;;9.80;99.90;;;;;;6313002;22;20423;-86
2023/03/26 11:54:14;;;;;;;17.52;2.83;;;10.30;99.90;;;;;;6306209;22;20008;-82
2023/03/26 11:56:54;;;;;;;17.38;3.08;;;8.90;99.90;;;;;;6310504;22;19995;-83
2023/03/26 11:59:27;;;;;;;14.70;2.75;;;8.80;99.90;;;;;;6307393;22;20012;-82
2023/03/26 12:02:22;;;;;;;14.88;2.75;;;10.00;99.90;;;;;;6307546;22;20034;-85
2023/03/26 12:05:32;;;;;;;13.80;2.47;;;9.60;99.90;;;;;;6316203;22;20019;-87
2023/03/26 12:08:18;;;;;;;14.52;3.00;;;8.70;99.90;;;;;;6307035;22;20474;-87
2023/03/26 12:11:28;;;;;;;12.13;2.50;;;10.00;99.90;;;;;;6312282;22;20019;-87
2023/03/26 12:14:16;;;;;;;16.43;3.37;;;10.20;99.90;;;;;;6188467;23;20028;-86
2023/03/26 12:17:00;;;;;;;10.77;2.67;;;8.60;99.90;;;;;;6307626;22;20003;-85
2023/03/26 12:19:57;;;;;;;13.23;2.70;;;10.20;99.90;;;;;;6306261;22;20386;-85
2023/03/26 12:22:40;;;;;;;15.90;2.78;;;9.10;99.90;;;;;;6306566;22;20015;-85
2023/03/26 12:28:52;;;;;;;9.65;2.38;;;9.40;99.90;;;;;;6307380;22;20014;-86
2023/03/26 12:31:41;;;;;;;11.65;3.00;;;9.00;99.90;;;;;;6307180;22;20447;-85
2023/03/26 12:34:51;;;;;;;16.63;2.75;;;10.60;99.90;;;;;;6305596;22;20305;-86
2023/03/26 12:40:35;;;;;;;14.07;2.90;;;9.50;99.90;;;;;;6308010;22;20023;-88
2023/03/26 12:43:35;;;;;;;14.13;2.42;;;9.40;99.90;;;;;;6305034;22;20015;-89
2023/03/26 12:46:26;;;;;;;13.90;2.40;;;9.20;99.90;;;;;;6271955;22;20083;-84
2023/03/26 12:49:17;;;;;;;12.63;3.17;;;9.20;99.90;;;;;;6305230;22;20015;-84
2023/03/26 12:52:17;;;;;;;10.13;2.35;;;9.20;99.90;;;;;;6305255;22;20382;-83
2023/03/26 12:55:28;;;;;;;11.38;2.72;;;9.20;99.90;;;;;;6306114;22;20034;-82
2023/03/26 12:58:50;;;;;;;13.57;2.60;;;9.20;99.90;;;;;;6307902;22;20011;-83
2023/03/26 13:01:33;;;;;;;11.85;2.50;;;9.00;99.90;;;;;;6239714;22;20431;-83
2023/03/26 13:04:21;;;;;;;15.77;2.70;;;9.10;99.90;;;;;;6306296;22;20015;-85
2023/03/26 13:07:22;;;;;;;11.57;2.83;;;9.10;99.90;;;;;;6305539;22;20102;-82
2023/03/26 13:10:00;;;;;;;12.73;2.80;;;9.10;99.90;;;;;;6306778;22;20086;-81
2023/03/26 13:12:44;;;;;;;15.02;2.70;;;8.90;99.90;;;;;;6305486;22;20023;-83
2023/03/26 13:15:16;;;;;;;13.85;2.67;;;8.90;99.90;;;;;;6307408;22;20022;-82
2023/03/26 13:17:45;;;;;;;12.65;2.75;;;8.90;99.90;;;;;;6311227;22;20022;-82
2023/03/26 13:20:42;;;;;;;14.23;2.50;;;9.00;99.90;;;;;;6307376;22;20050;-82
2023/03/26 13:23:36;;;;;;;12.75;2.50;;;8.90;99.90;;;;;;6307762;22;20064;-81
2023/03/26 13:26:12;;;;;;;11.77;2.85;;;8.90;99.90;;;;;;6312338;22;20011;-82
2023/03/26 13:28:51;;;;;;;12.63;2.40;;;8.80;99.90;;;;;;6306116;22;20093;-82
2023/03/26 13:31:23;;;;;;;10.50;2.20;;;8.90;99.90;;;;;;6304357;22;20407;-81
2023/03/26 13:34:44;;;;;;;12.57;2.97;;;8.90;99.90;;;;;;6306042;22;20051;-82
2023/03/26 13:37:27;;;;;;;11.93;2.72;;;8.90;99.90;;;;;;6202152;22;20439;-81
2023/03/26 13:40:21;;;;;;;15.50;2.63;;;8.90;99.90;;;;;;6306182;22;20012;-81
2023/03/26 13:43:13;;;;;;;16.60;2.90;;;8.90;99.90;;;;;;6305835;22;20019;-82
2023/03/26 13:46:08;;;;;;;13.20;2.15;;;8.80;99.90;;;;;;6304601;22;20110;-82
2023/03/26 13:48:51;;;;;;;12.93;2.60;;;8.80;99.90;;;;;;6307559;22;20047;-81
2023/03/26 13:51:35;;;;;;;12.50;2.38;;;8.70;99.90;;;;;;6304789;22;20015;-82
2023/03/26 13:54:06;;;;;;;13.40;2.55;;;8.60;99.90;;;;;;6305239;22;20094;-82
2023/03/26 13:56:45;;;;;;;13.43;2.80;;;8.60;99.90;;;;;;6307047;22;20137;-82
2023/03/26 13:59:19;;;;;;;13.52;2.80;;;9.10;99.90;;;;;;6306189;22;20320;-83
2023/03/26 14:01:53;;;;;;;17.75;3.08;;;8.90;99.90;;;;;;6305455;22;20041;-82
2023/03/26 14:04:22;;;;;;;;;;;8.90;99.90;;;;;;6305585;22;20011;-83
2023/03/26 14:07:00;;;;;;;12.18;2.47;;;8.70;99.90;;;;;;6305222;22;19910;-83
2023/03/26 14:09:52;;;;;;;10.80;2.40;;;8.80;99.90;;;;;;6307344;22;20065;-82
2023/03/26 14:12:23;;;;;;;15.48;2.97;;;8.90;99.90;;;;;;6304939;22;20785;-83